createdAt,value
2019-05-17T00:01:37.647Z,4.90
2019-05-17T00:04:42.685Z,4.73
2019-05-17T00:07:48.480Z,4.90
2019-05-17T00:10:54.262Z,4.87
2019-05-17T00:14:00.046Z,4.70
2019-05-17T00:17:06.648Z,5.20
2019-05-17T00:20:12.988Z,5.20
2019-05-17T00:23:18.659Z,5.07
2019-05-17T00:26:26.803Z,5.10
2019-05-17T00:29:31.855Z,4.70
2019-05-17T00:32:37.769Z,4.93
2019-05-17T00:35:43.469Z,4.93
2019-05-17T00:38:51.626Z,5.07
2019-05-17T00:41:57.307Z,5.43
2019-05-17T00:45:03.397Z,4.73
2019-05-17T00:48:09.255Z,4.90
2019-05-17T00:51:16.677Z,4.97
2019-05-17T00:54:22.381Z,4.80
2019-05-17T00:57:28.106Z,4.97
2019-05-17T01:00:33.778Z,4.70
2019-05-17T01:03:39.606Z,5.50
2019-05-17T01:06:46.890Z,5.00
2019-05-17T01:09:52.934Z,5.00
2019-05-17T01:12:58.594Z,5.07
2019-05-17T01:16:04.449Z,5.90
2019-05-17T01:19:10.198Z,6.07
2019-05-17T01:22:16.870Z,5.67
2019-05-17T01:25:22.735Z,6.13
2019-05-17T01:28:28.795Z,6.03
2019-05-17T01:31:34.569Z,5.20
2019-05-17T01:34:40.322Z,6.30
2019-05-17T01:37:47.649Z,5.73
2019-05-17T01:40:53.368Z,5.87
2019-05-17T01:43:59.033Z,5.97
2019-05-17T01:47:07.356Z,4.83
2019-05-17T01:50:13.486Z,5.40
2019-05-17T01:53:19.260Z,5.40
2019-05-17T01:56:26.230Z,5.33
2019-05-17T01:59:32.154Z,5.53
2019-05-17T02:02:40.839Z,6.07
2019-05-17T02:05:47.347Z,5.57
2019-05-17T02:08:53.449Z,5.37
2019-05-17T02:11:59.106Z,5.70
2019-05-17T02:15:06.901Z,5.77
2019-05-17T02:18:12.973Z,5.30
2019-05-17T02:21:18.741Z,5.50
2019-05-17T02:24:24.435Z,5.90
2019-05-17T02:27:35.709Z,5.37
2019-05-17T02:30:38.907Z,5.33
2019-05-17T02:33:44.765Z,5.50
2019-05-17T02:36:53.223Z,6.00
2019-05-17T02:40:02.856Z,5.87
2019-05-17T02:43:05.450Z,5.63
2019-05-17T02:46:13.710Z,6.07
2019-05-17T02:49:18.590Z,6.50
2019-05-17T02:52:24.279Z,6.10
2019-05-17T02:55:32.401Z,5.77
2019-05-17T02:58:37.438Z,6.80
2019-05-17T03:01:44.308Z,6.13
2019-05-17T03:04:52.588Z,6.33
2019-05-17T03:07:58.809Z,6.40
2019-05-17T03:11:04.799Z,6.60
2019-05-17T03:14:12.749Z,6.40
2019-05-17T03:17:17.972Z,7.33
2019-05-17T03:20:23.798Z,7.03
2019-05-17T03:23:32.645Z,7.13
2019-05-17T03:26:36.917Z,6.97
2019-05-17T03:29:42.709Z,6.87
2019-05-17T03:32:49.380Z,6.97
2019-05-17T03:35:57.360Z,6.73
2019-05-17T03:39:04.742Z,7.10
2019-05-17T03:42:13.221Z,6.60
2019-05-17T03:45:18.647Z,6.60
2019-05-17T03:48:24.322Z,6.57
2019-05-17T03:51:33.039Z,7.20
2019-05-17T03:54:37.571Z,5.93
2019-05-17T03:57:44.355Z,5.53
2019-05-17T04:00:53.094Z,5.77
2019-05-17T04:03:57.489Z,5.27
2019-05-17T04:07:03.684Z,5.70
2019-05-17T04:10:09.820Z,5.13
2019-05-17T04:13:15.597Z,5.07
2019-05-17T04:16:23.817Z,5.40
2019-05-17T04:19:28.764Z,5.57
2019-05-17T04:22:34.501Z,5.33
2019-05-17T04:25:43.320Z,5.23
2019-05-17T04:28:47.855Z,5.40
2019-05-17T04:31:54.612Z,5.70
2019-05-17T04:35:03.754Z,5.27
2019-05-17T04:38:08.163Z,5.07
2019-05-17T04:41:13.901Z,6.20
2019-05-17T04:44:19.577Z,5.63
2019-05-17T04:47:25.300Z,5.57
2019-05-17T04:50:33.484Z,5.80
2019-05-17T04:53:38.453Z,6.03
2019-05-17T04:56:44.253Z,6.00
2019-05-17T04:59:52.333Z,6.43
2019-05-17T05:02:57.730Z,6.27
2019-05-17T05:06:03.714Z,6.00
2019-05-17T05:09:12.485Z,5.97
2019-05-17T05:12:17.012Z,6.33
2019-05-17T05:15:44.033Z,6.03
2019-05-17T05:18:48.490Z,6.20
2019-05-17T05:21:54.275Z,6.03
2019-05-17T05:25:02.209Z,6.30
2019-05-17T05:28:07.664Z,6.30
2019-05-17T05:31:13.504Z,6.00
2019-05-17T05:34:21.457Z,6.10
2019-05-17T05:37:26.695Z,5.83
2019-05-17T05:40:32.404Z,5.90
2019-05-17T05:43:45.501Z,6.37
2019-05-17T05:46:51.521Z,5.07
2019-05-17T05:49:57.198Z,5.33
2019-05-17T05:53:03.150Z,5.50
2019-05-17T05:56:09.055Z,5.40
2019-05-17T05:59:14.723Z,5.63
2019-05-17T06:02:23.888Z,5.00
2019-05-17T06:05:34.966Z,6.00
2019-05-17T06:08:41.770Z,5.23
2019-05-17T06:11:47.468Z,5.27
2019-05-17T06:14:53.178Z,5.87
2019-05-17T06:17:58.948Z,5.50
2019-05-17T06:21:08.876Z,5.20
2019-05-17T06:24:14.605Z,5.23
2019-05-17T06:27:21.553Z,5.30
2019-05-17T06:30:27.471Z,5.20
2019-05-17T06:33:34.909Z,5.50
2019-05-17T06:36:42.454Z,7.10
2019-05-17T06:39:48.296Z,5.40
2019-05-17T06:42:55.506Z,5.40
2019-05-17T06:46:01.816Z,5.60
2019-05-17T06:49:11.727Z,5.73
2019-05-17T06:52:16.370Z,5.47
2019-05-17T06:55:25.229Z,5.57
2019-05-17T06:58:36.025Z,5.47
2019-05-17T07:01:44.900Z,5.20
2019-05-17T07:04:51.245Z,5.23
2019-05-17T07:08:00.733Z,4.97
2019-05-17T07:11:06.878Z,5.90
2019-05-17T07:14:12.574Z,5.27
2019-05-17T07:17:19.690Z,4.87
2019-05-17T07:20:25.562Z,5.53
2019-05-17T07:23:31.285Z,5.47
2019-05-17T07:26:39.238Z,6.27
2019-05-17T07:29:44.428Z,6.27
2019-05-17T07:32:50.201Z,5.73
2019-05-17T07:35:56.052Z,5.30
2019-05-17T07:39:01.742Z,5.23
2019-05-17T07:42:09.669Z,5.67
2019-05-17T07:45:15.775Z,5.50
2019-05-17T07:48:22.904Z,6.00
2019-05-17T07:51:30.159Z,5.70
2019-05-17T07:54:36.161Z,6.07
2019-05-17T07:57:41.827Z,5.43
2019-05-17T08:00:50.896Z,5.50
2019-05-17T08:03:55.004Z,5.77
2019-05-17T08:07:00.708Z,5.00
2019-05-17T08:10:10.987Z,4.70
2019-05-17T08:13:29.129Z,5.07
2019-05-17T08:16:24.100Z,5.60
2019-05-17T08:19:53.866Z,6.57
2019-05-17T08:22:59.647Z,5.43
2019-05-17T08:26:05.519Z,5.17
2019-05-17T08:29:11.238Z,5.50
2019-05-17T08:32:17.055Z,5.17
2019-05-17T08:35:22.783Z,6.27
2019-05-17T08:38:30.536Z,5.77
2019-05-17T08:41:49.622Z,5.43
2019-05-17T08:44:49.998Z,6.03
2019-05-17T08:47:56.840Z,5.87
2019-05-17T08:51:03.646Z,5.10
2019-05-17T08:54:10.304Z,6.13
2019-05-17T08:57:16.613Z,5.90
2019-05-17T09:00:26.402Z,5.87
2019-05-17T09:03:32.090Z,5.97
2019-05-17T09:06:39.735Z,6.40
2019-05-17T09:09:45.280Z,5.70
2019-05-17T09:13:00.374Z,5.90
2019-05-17T09:16:07.539Z,5.57
2019-05-17T09:19:13.267Z,5.70
2019-05-17T09:22:19.853Z,5.57
2019-05-17T09:25:30.318Z,6.40
2019-05-17T09:28:36.116Z,5.60
2019-05-17T09:31:41.812Z,5.90
2019-05-17T09:34:49.662Z,6.33
2019-05-17T09:37:54.963Z,6.13
2019-05-17T09:41:00.923Z,5.53
2019-05-17T09:44:12.842Z,5.73
2019-05-17T09:47:14.469Z,5.23
2019-05-17T09:50:20.336Z,5.77
2019-05-17T09:53:26.014Z,5.20
2019-05-17T09:56:36.100Z,5.37
2019-05-17T09:59:41.809Z,5.70
2019-05-17T10:02:47.464Z,5.10
2019-05-17T10:05:53.193Z,3.93
2019-05-17T10:09:00.192Z,5.23
2019-05-17T10:12:09.540Z,5.40
2019-05-17T10:15:15.561Z,5.23
2019-05-17T10:18:21.264Z,5.33
2019-05-17T10:21:27.092Z,5.73
2019-05-17T10:24:38.166Z,5.80
2019-05-17T10:27:40.916Z,6.13
2019-05-17T10:30:46.701Z,5.43
2019-05-17T10:33:52.436Z,5.30
2019-05-17T10:36:58.266Z,5.30
2019-05-17T10:40:03.944Z,5.40
2019-05-17T10:43:10.170Z,5.43
2019-05-17T10:46:16.171Z,5.20
2019-05-17T10:49:21.946Z,5.70
2019-05-17T10:52:29.913Z,5.97
2019-05-17T10:55:35.147Z,6.47
2019-05-17T10:58:40.915Z,5.77
2019-05-17T11:01:46.578Z,5.43
2019-05-17T11:04:52.255Z,4.87
2019-05-17T11:07:59.879Z,4.17
2019-05-17T11:11:05.405Z,4.30
2019-05-17T11:14:11.094Z,4.50
2019-05-17T11:17:16.800Z,3.80
2019-05-17T11:20:22.787Z,4.23
2019-05-17T11:23:28.457Z,4.77
2019-05-17T11:26:34.256Z,3.77
2019-05-17T11:29:40.243Z,4.33
2019-05-17T11:32:45.906Z,4.00
2019-05-17T11:35:51.705Z,4.07
2019-05-17T11:38:57.414Z,3.97
2019-05-17T11:42:03.115Z,5.17
2019-05-17T11:45:08.996Z,4.57
2019-05-17T11:48:14.814Z,4.00
2019-05-17T11:51:21.750Z,4.37
2019-05-17T11:54:27.685Z,4.23
2019-05-17T11:57:34.530Z,4.23
2019-05-17T12:00:40.279Z,4.00
2019-05-17T12:03:45.955Z,4.33
2019-05-17T12:06:51.650Z,4.00
2019-05-17T12:09:58.867Z,4.60
2019-05-17T12:13:04.653Z,4.80
2019-05-17T12:16:10.337Z,4.80
2019-05-17T12:19:25.221Z,5.00
2019-05-17T12:22:30.924Z,5.20
2019-05-17T12:25:39.320Z,4.70
2019-05-17T12:28:45.151Z,5.03
2019-05-17T12:31:50.922Z,5.80
2019-05-17T12:34:58.235Z,6.10
2019-05-17T12:38:06.451Z,5.97
2019-05-17T12:41:12.310Z,6.17
2019-05-17T12:44:18.057Z,5.70
2019-05-17T12:47:24.844Z,7.00
2019-05-17T12:50:30.577Z,5.70
2019-05-17T12:53:36.342Z,6.20
2019-05-17T12:56:42.114Z,6.67
2019-05-17T12:59:47.916Z,5.47
2019-05-17T13:02:53.583Z,5.80
2019-05-17T13:05:59.620Z,4.73
2019-05-17T13:09:06.592Z,4.87
2019-05-17T13:12:12.460Z,5.03
2019-05-17T13:15:18.242Z,4.43
2019-05-17T13:18:25.137Z,5.30
2019-05-17T13:21:30.795Z,4.83
2019-05-17T13:24:36.554Z,4.67
2019-05-17T13:27:42.274Z,5.00
2019-05-17T13:30:48.027Z,4.53
2019-05-17T13:33:53.801Z,5.33
2019-05-17T13:36:59.466Z,4.87
2019-05-17T13:40:05.888Z,4.77
2019-05-17T13:43:11.607Z,4.80
2019-05-17T13:46:30.745Z,4.67
2019-05-17T13:49:24.841Z,4.60
2019-05-17T13:52:30.575Z,4.97
2019-05-17T13:55:36.531Z,5.07
2019-05-17T13:58:42.195Z,4.80
2019-05-17T14:01:47.841Z,4.40
2019-05-17T14:04:53.564Z,4.30
2019-05-17T14:07:59.245Z,4.43
2019-05-17T14:11:05.129Z,4.67
2019-05-17T14:14:10.883Z,4.33
2019-05-17T14:17:16.614Z,4.30
2019-05-17T14:20:22.335Z,4.97
2019-05-17T14:23:28.070Z,6.23
2019-05-17T14:26:35.052Z,4.10
2019-05-17T14:29:40.977Z,3.83
2019-05-17T14:32:46.750Z,4.90
2019-05-17T14:35:52.433Z,5.07
2019-05-17T14:38:58.237Z,4.80
2019-05-17T14:42:04.051Z,4.30
2019-05-17T14:45:13.464Z,5.23
2019-05-17T14:48:19.163Z,5.07
2019-05-17T14:51:24.845Z,5.53
2019-05-17T14:54:31.545Z,4.93
2019-05-17T14:57:42.597Z,5.17
2019-05-17T15:00:46.565Z,5.80
2019-05-17T15:03:52.301Z,5.47
2019-05-17T15:06:58.031Z,6.77
2019-05-17T15:10:04.746Z,5.10
2019-05-17T15:13:10.707Z,5.10
2019-05-17T15:16:16.381Z,4.83
2019-05-17T15:19:25.773Z,4.80
2019-05-17T15:22:31.484Z,5.10
2019-05-17T15:25:37.278Z,5.63
2019-05-17T15:28:44.210Z,5.00
2019-05-17T15:31:52.143Z,5.37
2019-05-17T15:34:57.376Z,4.90
2019-05-17T15:38:05.702Z,5.17
2019-05-17T15:41:11.417Z,4.83
2019-05-17T15:44:17.596Z,4.97
2019-05-17T15:47:23.312Z,5.07
2019-05-17T15:50:28.993Z,4.40
2019-05-17T15:53:34.642Z,5.17
2019-05-17T15:56:40.369Z,5.23
2019-05-17T15:59:46.322Z,4.50
2019-05-17T16:02:54.947Z,4.70
2019-05-17T16:06:00.651Z,4.90
2019-05-17T16:09:07.866Z,4.53
2019-05-17T16:12:13.531Z,4.67
2019-05-17T16:15:19.207Z,5.07
2019-05-17T16:18:24.872Z,5.47
2019-05-17T16:21:30.610Z,5.47
2019-05-17T16:24:36.359Z,4.67
2019-05-17T16:27:42.376Z,4.97
2019-05-17T16:30:48.159Z,4.63
2019-05-17T16:33:53.887Z,4.63
2019-05-17T16:36:59.566Z,4.87
2019-05-17T16:40:06.039Z,4.20
2019-05-17T16:43:18.178Z,5.23
2019-05-17T16:46:19.408Z,4.93
2019-05-17T16:49:28.430Z,4.43
2019-05-17T16:52:33.630Z,4.47
2019-05-17T16:55:42.503Z,4.70
2019-05-17T16:58:48.237Z,4.40
2019-05-17T17:01:53.998Z,4.43
2019-05-17T17:04:59.669Z,4.57
2019-05-17T17:08:05.768Z,4.30
2019-05-17T17:11:11.687Z,4.43
2019-05-17T17:14:17.525Z,4.83
2019-05-17T17:17:33.183Z,5.10
2019-05-17T17:20:47.543Z,5.43
2019-05-17T17:23:53.277Z,4.80
2019-05-17T17:27:00.973Z,4.50
2019-05-17T17:30:07.499Z,4.70
2019-05-17T17:33:17.461Z,4.90
2019-05-17T17:36:21.754Z,4.83
2019-05-17T17:39:27.429Z,5.20
2019-05-17T17:42:33.177Z,4.80
2019-05-17T17:45:42.308Z,5.53
2019-05-17T17:48:48.042Z,4.17
2019-05-17T17:51:56.785Z,4.37
2019-05-17T17:55:06.689Z,5.40
2019-05-17T17:58:12.532Z,4.53
2019-05-17T18:01:19.858Z,5.17
2019-05-17T18:04:25.659Z,5.70
2019-05-17T18:07:31.366Z,5.27
2019-05-17T18:10:42.530Z,4.87
2019-05-17T18:13:48.187Z,5.30
2019-05-17T18:16:53.934Z,5.40
2019-05-17T18:19:59.741Z,5.17
2019-05-17T18:23:05.612Z,4.73
2019-05-17T18:26:11.459Z,5.70
2019-05-17T18:29:17.379Z,4.67
2019-05-17T18:32:23.112Z,4.83
2019-05-17T18:35:29.197Z,5.20
2019-05-17T18:38:36.105Z,5.73
2019-05-17T18:41:41.973Z,4.63
2019-05-17T18:44:47.628Z,5.30
2019-05-17T18:47:53.514Z,4.73
2019-05-17T18:50:59.263Z,4.50
2019-05-17T18:54:06.485Z,4.50
2019-05-17T18:57:12.299Z,4.70
2019-05-17T19:00:19.404Z,4.60
2019-05-17T19:03:25.160Z,5.23
2019-05-17T19:06:31.030Z,5.57
2019-05-17T19:09:36.826Z,5.80
2019-05-17T19:12:42.610Z,6.03
2019-05-17T19:15:48.250Z,5.00
2019-05-17T19:18:53.963Z,5.70
2019-05-17T19:21:59.652Z,6.00
2019-05-17T19:25:06.204Z,6.30
2019-05-17T19:28:12.013Z,5.87
2019-05-17T19:31:17.710Z,8.40
2019-05-17T19:34:23.600Z,7.00
2019-05-17T19:37:29.394Z,5.43
2019-05-17T19:40:35.135Z,5.60
2019-05-17T19:43:40.916Z,6.30
2019-05-17T19:46:46.685Z,4.93
2019-05-17T19:49:52.763Z,4.93
2019-05-17T19:52:58.484Z,5.30
2019-05-17T19:56:04.258Z,4.90
2019-05-17T19:59:11.109Z,5.27
2019-05-17T20:02:16.825Z,5.50
2019-05-17T20:05:22.770Z,4.90
2019-05-17T20:08:28.554Z,5.27
2019-05-17T20:11:34.893Z,5.47
2019-05-17T20:14:40.603Z,6.13
2019-05-17T20:17:46.367Z,7.17
2019-05-17T20:20:54.436Z,7.90
2019-05-17T20:24:00.084Z,8.70
2019-05-17T20:27:05.894Z,9.90
2019-05-17T20:30:12.544Z,10.27
2019-05-17T20:33:20.081Z,10.70
2019-05-17T20:40:18.707Z,10.00
2019-05-17T20:43:24.540Z,10.87
2019-05-17T20:46:56.819Z,10.63
2019-05-17T20:50:02.547Z,10.30
2019-05-17T20:53:18.501Z,10.50
2019-05-17T20:56:31.368Z,10.33
2019-05-17T20:59:24.589Z,9.33
2019-05-17T21:02:30.261Z,10.20
2019-05-17T21:05:35.934Z,9.67
2019-05-17T21:08:46.208Z,9.53
2019-05-17T21:11:49.060Z,8.40
2019-05-17T21:14:56.532Z,9.13
2019-05-17T21:18:02.123Z,9.50
2019-05-17T21:21:07.949Z,10.40
2019-05-17T21:24:13.620Z,8.67
2019-05-17T21:27:19.415Z,8.43
2019-05-17T21:30:25.133Z,7.67
2019-05-17T21:33:30.799Z,7.73
2019-05-17T21:36:36.493Z,7.70
2019-05-17T21:39:42.222Z,8.27
2019-05-17T21:42:47.904Z,8.30
2019-05-17T21:46:03.675Z,8.77
2019-05-17T21:49:03.138Z,8.07
2019-05-17T21:52:08.866Z,7.40
2019-05-17T21:55:14.704Z,8.13
2019-05-17T21:58:20.615Z,8.37
2019-05-17T22:01:28.436Z,8.77
2019-05-17T22:04:34.347Z,9.60
2019-05-17T22:07:40.154Z,9.70
2019-05-17T22:10:45.918Z,10.37
2019-05-17T22:13:51.629Z,9.33
2019-05-17T22:16:57.311Z,9.90
2019-05-17T22:20:03.083Z,9.83
2019-05-17T22:23:08.808Z,9.50
2019-05-17T22:26:14.505Z,9.47
2019-05-17T22:29:20.356Z,8.53
2019-05-17T22:32:26.075Z,8.37
2019-05-17T22:35:31.744Z,8.60
2019-05-17T22:38:37.601Z,7.67
2019-05-17T22:41:43.282Z,8.00
2019-05-17T22:44:47.883Z,7.40
2019-05-17T22:47:53.546Z,7.00
2019-05-17T22:51:00.197Z,7.50
2019-05-17T22:54:06.206Z,7.43
2019-05-17T22:57:53.455Z,7.67
2019-05-17T23:05:29.747Z,9.37
2019-05-17T23:08:35.404Z,9.47
2019-05-17T23:11:41.204Z,9.30
2019-05-17T23:14:46.891Z,10.47
2019-05-17T23:17:53.574Z,12.00
2019-05-17T23:20:59.252Z,12.10
2019-05-17T23:24:06.242Z,11.60
2019-05-17T23:27:13.340Z,11.63
2019-05-17T23:30:19.784Z,12.07
2019-05-17T23:33:25.637Z,11.23
2019-05-17T23:36:31.319Z,11.23
2019-05-17T23:39:37.053Z,11.60
2019-05-17T23:42:42.732Z,10.70
2019-05-17T23:45:48.587Z,9.53
2019-05-17T23:48:54.484Z,9.00
2019-05-17T23:52:00.148Z,8.13
2019-05-17T23:55:06.711Z,8.53
2019-05-17T23:58:12.407Z,8.43
